sensor_id;sensor_type;location;lat;lon;timestamp;P1;durP1;ratioP1;P2;durP2;ratioP2
10479;SDS011;12789;42.610;23.040;2023-02-22T00:00:49;52.60;;;25.93;;
10479;SDS011;12789;42.610;23.040;2023-02-22T00:03:18;58.93;;;28.17;;
10479;SDS011;12789;42.610;23.040;2023-02-22T00:05:49;52.37;;;25.33;;
10479;SDS011;12789;42.610;23.040;2023-02-22T00:08:19;57.17;;;25.53;;
10479;SDS011;12789;42.610;23.040;2023-02-22T00:10:46;47.20;;;24.50;;
10479;SDS011;12789;42.610;23.040;2023-02-22T00:13:15;53.90;;;23.87;;
10479;SDS011;12789;42.610;23.040;2023-02-22T00:15:42;50.90;;;23.53;;
10479;SDS011;12789;42.610;23.040;2023-02-22T00:18:10;60.33;;;24.67;;
10479;SDS011;12789;42.610;23.040;2023-02-22T00:20:37;62.77;;;26.50;;
10479;SDS011;12789;42.610;23.040;2023-02-22T00:23:04;69.27;;;29.30;;
10479;SDS011;12789;42.610;23.040;2023-02-22T00:25:34;69.00;;;30.00;;
10479;SDS011;12789;42.610;23.040;2023-02-22T00:28:01;73.10;;;30.20;;
10479;SDS011;12789;42.610;23.040;2023-02-22T00:30:29;67.10;;;29.87;;
10479;SDS011;12789;42.610;23.040;2023-02-22T00:32:57;76.33;;;31.17;;
10479;SDS011;12789;42.610;23.040;2023-02-22T00:35:25;84.60;;;34.27;;
10479;SDS011;12789;42.610;23.040;2023-02-22T00:37:53;82.77;;;32.87;;
10479;SDS011;12789;42.610;23.040;2023-02-22T00:40:20;81.00;;;34.67;;
10479;SDS011;12789;42.610;23.040;2023-02-22T00:42:49;85.63;;;34.10;;
10479;SDS011;12789;42.610;23.040;2023-02-22T00:45:16;91.70;;;35.07;;
10479;SDS011;12789;42.610;23.040;2023-02-22T00:47:43;85.17;;;34.43;;
10479;SDS011;12789;42.610;23.040;2023-02-22T00:50:10;76.30;;;32.00;;
10479;SDS011;12789;42.610;23.040;2023-02-22T00:52:37;71.67;;;27.20;;
10479;SDS011;12789;42.610;23.040;2023-02-22T00:55:04;70.37;;;25.93;;
10479;SDS011;12789;42.610;23.040;2023-02-22T00:57:31;61.77;;;23.77;;
10479;SDS011;12789;42.610;23.040;2023-02-22T01:00:00;57.33;;;23.33;;
10479;SDS011;12789;42.610;23.040;2023-02-22T01:02:36;54.63;;;23.10;;
10479;SDS011;12789;42.610;23.040;2023-02-22T01:05:02;63.73;;;23.97;;
10479;SDS011;12789;42.610;23.040;2023-02-22T01:07:29;52.60;;;22.80;;
10479;SDS011;12789;42.610;23.040;2023-02-22T01:09:55;53.07;;;22.50;;
10479;SDS011;12789;42.610;23.040;2023-02-22T01:12:22;54.83;;;22.73;;
10479;SDS011;12789;42.610;23.040;2023-02-22T01:14:49;45.37;;;21.90;;
10479;SDS011;12789;42.610;23.040;2023-02-22T01:17:17;58.70;;;23.90;;
10479;SDS011;12789;42.610;23.040;2023-02-22T01:19:43;54.17;;;21.33;;
10479;SDS011;12789;42.610;23.040;2023-02-22T01:22:10;57.67;;;23.03;;
10479;SDS011;12789;42.610;23.040;2023-02-22T01:24:36;57.23;;;23.13;;
10479;SDS011;12789;42.610;23.040;2023-02-22T01:27:03;63.73;;;22.30;;
10479;SDS011;12789;42.610;23.040;2023-02-22T01:29:29;55.03;;;22.27;;
10479;SDS011;12789;42.610;23.040;2023-02-22T01:31:56;65.17;;;24.50;;
10479;SDS011;12789;42.610;23.040;2023-02-22T01:34:24;71.53;;;27.87;;
10479;SDS011;12789;42.610;23.040;2023-02-22T01:36:50;67.60;;;28.90;;
10479;SDS011;12789;42.610;23.040;2023-02-22T01:39:17;68.40;;;26.50;;
10479;SDS011;12789;42.610;23.040;2023-02-22T01:41:43;62.43;;;24.87;;
10479;SDS011;12789;42.610;23.040;2023-02-22T01:44:17;70.27;;;25.77;;
10479;SDS011;12789;42.610;23.040;2023-02-22T01:46:44;63.80;;;25.63;;
10479;SDS011;12789;42.610;23.040;2023-02-22T01:49:10;66.83;;;25.23;;
10479;SDS011;12789;42.610;23.040;2023-02-22T01:51:41;62.70;;;24.80;;
10479;SDS011;12789;42.610;23.040;2023-02-22T01:54:09;65.87;;;23.40;;
10479;SDS011;12789;42.610;23.040;2023-02-22T01:56:38;53.37;;;24.67;;
10479;SDS011;12789;42.610;23.040;2023-02-22T01:59:07;57.23;;;23.07;;
10479;SDS011;12789;42.610;23.040;2023-02-22T02:01:35;48.80;;;22.20;;
10479;SDS011;12789;42.610;23.040;2023-02-22T02:04:04;50.53;;;21.13;;
10479;SDS011;12789;42.610;23.040;2023-02-22T02:06:32;54.07;;;20.80;;
10479;SDS011;12789;42.610;23.040;2023-02-22T02:09:02;51.03;;;20.80;;
10479;SDS011;12789;42.610;23.040;2023-02-22T02:11:29;67.63;;;29.73;;
10479;SDS011;12789;42.610;23.040;2023-02-22T02:13:57;73.73;;;31.10;;
10479;SDS011;12789;42.610;23.040;2023-02-22T02:16:24;68.50;;;30.80;;
10479;SDS011;12789;42.610;23.040;2023-02-22T02:18:52;60.10;;;28.17;;
10479;SDS011;12789;42.610;23.040;2023-02-22T02:21:34;116.83;;;48.67;;
10479;SDS011;12789;42.610;23.040;2023-02-22T02:27:03;65.57;;;30.40;;
10479;SDS011;12789;42.610;23.040;2023-02-22T02:35:05;52.00;;;22.00;;
10479;SDS011;12789;42.610;23.040;2023-02-22T02:37:36;51.63;;;22.00;;
10479;SDS011;12789;42.610;23.040;2023-02-22T02:40:09;50.17;;;20.53;;
10479;SDS011;12789;42.610;23.040;2023-02-22T02:42:37;49.87;;;20.47;;
10479;SDS011;12789;42.610;23.040;2023-02-22T02:45:07;50.23;;;22.73;;
10479;SDS011;12789;42.610;23.040;2023-02-22T02:47:35;57.63;;;22.43;;
10479;SDS011;12789;42.610;23.040;2023-02-22T02:50:06;136.03;;;52.00;;
10479;SDS011;12789;42.610;23.040;2023-02-22T02:52:34;132.43;;;46.33;;
10479;SDS011;12789;42.610;23.040;2023-02-22T02:55:02;95.20;;;38.17;;
10479;SDS011;12789;42.610;23.040;2023-02-22T02:57:30;84.53;;;33.37;;
10479;SDS011;12789;42.610;23.040;2023-02-22T02:59:56;71.53;;;29.97;;
10479;SDS011;12789;42.610;23.040;2023-02-22T03:02:30;62.10;;;28.23;;
10479;SDS011;12789;42.610;23.040;2023-02-22T03:05:05;60.03;;;25.03;;
10479;SDS011;12789;42.610;23.040;2023-02-22T03:07:40;56.77;;;24.57;;
10479;SDS011;12789;42.610;23.040;2023-02-22T03:10:12;50.87;;;21.93;;
10479;SDS011;12789;42.610;23.040;2023-02-22T03:12:44;50.77;;;22.40;;
10479;SDS011;12789;42.610;23.040;2023-02-22T03:15:16;54.40;;;21.17;;
10479;SDS011;12789;42.610;23.040;2023-02-22T03:17:46;49.10;;;20.77;;
10479;SDS011;12789;42.610;23.040;2023-02-22T03:20:19;52.20;;;21.57;;
10479;SDS011;12789;42.610;23.040;2023-02-22T03:22:49;50.10;;;22.20;;
10479;SDS011;12789;42.610;23.040;2023-02-22T03:25:19;52.03;;;21.77;;
10479;SDS011;12789;42.610;23.040;2023-02-22T03:27:47;64.23;;;22.93;;
10479;SDS011;12789;42.610;23.040;2023-02-22T03:30:15;56.87;;;22.80;;
10479;SDS011;12789;42.610;23.040;2023-02-22T03:32:45;51.53;;;20.50;;
10479;SDS011;12789;42.610;23.040;2023-02-22T03:35:13;50.23;;;20.53;;
10479;SDS011;12789;42.610;23.040;2023-02-22T03:37:43;62.70;;;22.00;;
10479;SDS011;12789;42.610;23.040;2023-02-22T03:40:13;45.97;;;21.37;;
10479;SDS011;12789;42.610;23.040;2023-02-22T03:42:44;46.60;;;20.27;;
10479;SDS011;12789;42.610;23.040;2023-02-22T03:45:14;50.60;;;21.57;;
10479;SDS011;12789;42.610;23.040;2023-02-22T03:47:43;55.77;;;23.77;;
10479;SDS011;12789;42.610;23.040;2023-02-22T03:50:11;48.20;;;22.60;;
10479;SDS011;12789;42.610;23.040;2023-02-22T03:52:40;59.93;;;23.10;;
10479;SDS011;12789;42.610;23.040;2023-02-22T03:55:08;57.93;;;24.00;;
10479;SDS011;12789;42.610;23.040;2023-02-22T03:57:36;59.63;;;25.90;;
10479;SDS011;12789;42.610;23.040;2023-02-22T04:00:05;60.83;;;27.23;;
10479;SDS011;12789;42.610;23.040;2023-02-22T04:02:32;75.47;;;29.23;;
10479;SDS011;12789;42.610;23.040;2023-02-22T04:04:58;70.10;;;29.83;;
10479;SDS011;12789;42.610;23.040;2023-02-22T04:07:25;77.33;;;31.03;;
10479;SDS011;12789;42.610;23.040;2023-02-22T04:09:51;77.57;;;30.77;;
10479;SDS011;12789;42.610;23.040;2023-02-22T04:12:19;67.60;;;27.93;;
10479;SDS011;12789;42.610;23.040;2023-02-22T04:14:46;57.90;;;26.00;;
10479;SDS011;12789;42.610;23.040;2023-02-22T04:17:12;46.80;;;23.40;;
10479;SDS011;12789;42.610;23.040;2023-02-22T04:19:39;59.07;;;23.80;;
10479;SDS011;12789;42.610;23.040;2023-02-22T04:22:05;59.20;;;22.00;;
10479;SDS011;12789;42.610;23.040;2023-02-22T04:24:33;54.63;;;21.37;;
10479;SDS011;12789;42.610;23.040;2023-02-22T04:27:00;55.50;;;20.90;;
10479;SDS011;12789;42.610;23.040;2023-02-22T04:29:29;54.63;;;20.13;;
10479;SDS011;12789;42.610;23.040;2023-02-22T04:31:55;53.17;;;20.13;;
10479;SDS011;12789;42.610;23.040;2023-02-22T04:34:22;64.80;;;21.83;;
10479;SDS011;12789;42.610;23.040;2023-02-22T04:36:48;50.67;;;20.43;;
10479;SDS011;12789;42.610;23.040;2023-02-22T04:39:15;56.90;;;20.43;;
10479;SDS011;12789;42.610;23.040;2023-02-22T04:41:41;65.60;;;21.23;;
10479;SDS011;12789;42.610;23.040;2023-02-22T04:44:07;56.00;;;21.10;;
10479;SDS011;12789;42.610;23.040;2023-02-22T04:46:35;55.67;;;21.37;;
10479;SDS011;12789;42.610;23.040;2023-02-22T04:49:02;56.67;;;22.17;;
10479;SDS011;12789;42.610;23.040;2023-02-22T04:51:28;61.07;;;23.53;;
10479;SDS011;12789;42.610;23.040;2023-02-22T04:53:55;67.07;;;23.70;;
10479;SDS011;12789;42.610;23.040;2023-02-22T04:56:21;62.50;;;24.40;;
10479;SDS011;12789;42.610;23.040;2023-02-22T04:58:48;67.43;;;24.13;;
10479;SDS011;12789;42.610;23.040;2023-02-22T05:01:15;66.27;;;25.20;;
10479;SDS011;12789;42.610;23.040;2023-02-22T05:03:43;70.70;;;26.70;;
10479;SDS011;12789;42.610;23.040;2023-02-22T05:06:09;67.50;;;27.10;;
10479;SDS011;12789;42.610;23.040;2023-02-22T05:08:42;63.07;;;26.17;;
10479;SDS011;12789;42.610;23.040;2023-02-22T05:11:08;61.47;;;25.47;;
10479;SDS011;12789;42.610;23.040;2023-02-22T05:13:35;55.83;;;24.23;;
10479;SDS011;12789;42.610;23.040;2023-02-22T05:16:01;64.43;;;22.03;;
10479;SDS011;12789;42.610;23.040;2023-02-22T05:18:30;48.33;;;21.87;;
10479;SDS011;12789;42.610;23.040;2023-02-22T05:20:59;50.00;;;21.37;;
10479;SDS011;12789;42.610;23.040;2023-02-22T05:23:26;60.67;;;21.77;;
10479;SDS011;12789;42.610;23.040;2023-02-22T05:25:52;49.80;;;22.17;;
10479;SDS011;12789;42.610;23.040;2023-02-22T05:28:19;48.90;;;21.17;;
10479;SDS011;12789;42.610;23.040;2023-02-22T05:30:45;102.37;;;28.50;;
10479;SDS011;12789;42.610;23.040;2023-02-22T05:33:12;136.00;;;35.10;;
10479;SDS011;12789;42.610;23.040;2023-02-22T05:35:38;58.77;;;21.40;;
10479;SDS011;12789;42.610;23.040;2023-02-22T05:38:06;60.47;;;22.23;;
10479;SDS011;12789;42.610;23.040;2023-02-22T05:40:33;51.93;;;20.70;;
10479;SDS011;12789;42.610;23.040;2023-02-22T05:42:59;61.20;;;21.50;;
10479;SDS011;12789;42.610;23.040;2023-02-22T05:45:26;49.63;;;22.03;;
10479;SDS011;12789;42.610;23.040;2023-02-22T05:47:53;58.63;;;20.83;;
10479;SDS011;12789;42.610;23.040;2023-02-22T05:50:20;55.40;;;21.53;;
10479;SDS011;12789;42.610;23.040;2023-02-22T05:52:47;60.67;;;21.30;;
10479;SDS011;12789;42.610;23.040;2023-02-22T05:55:16;54.13;;;20.63;;
10479;SDS011;12789;42.610;23.040;2023-02-22T05:57:42;54.57;;;21.00;;
10479;SDS011;12789;42.610;23.040;2023-02-22T06:00:09;59.23;;;21.60;;
10479;SDS011;12789;42.610;23.040;2023-02-22T06:02:36;64.73;;;22.80;;
10479;SDS011;12789;42.610;23.040;2023-02-22T06:05:03;53.10;;;23.03;;
10479;SDS011;12789;42.610;23.040;2023-02-22T06:07:29;60.40;;;22.63;;
10479;SDS011;12789;42.610;23.040;2023-02-22T06:09:56;82.93;;;23.33;;
10479;SDS011;12789;42.610;23.040;2023-02-22T06:12:23;61.97;;;24.13;;
10479;SDS011;12789;42.610;23.040;2023-02-22T06:14:51;77.17;;;26.07;;
10479;SDS011;12789;42.610;23.040;2023-02-22T06:17:17;72.20;;;27.57;;
10479;SDS011;12789;42.610;23.040;2023-02-22T06:19:44;63.77;;;27.53;;
10479;SDS011;12789;42.610;23.040;2023-02-22T06:22:14;71.90;;;27.67;;
10479;SDS011;12789;42.610;23.040;2023-02-22T06:24:42;76.67;;;28.97;;
10479;SDS011;12789;42.610;23.040;2023-02-22T06:27:09;66.43;;;28.93;;
10479;SDS011;12789;42.610;23.040;2023-02-22T06:29:37;74.27;;;30.13;;
10479;SDS011;12789;42.610;23.040;2023-02-22T06:32:04;76.17;;;30.73;;
10479;SDS011;12789;42.610;23.040;2023-02-22T06:34:30;69.63;;;28.70;;
10479;SDS011;12789;42.610;23.040;2023-02-22T06:36:57;74.23;;;27.90;;
10479;SDS011;12789;42.610;23.040;2023-02-22T06:39:24;74.53;;;27.80;;
10479;SDS011;12789;42.610;23.040;2023-02-22T06:41:51;71.90;;;27.77;;
10479;SDS011;12789;42.610;23.040;2023-02-22T06:44:19;67.27;;;29.40;;
10479;SDS011;12789;42.610;23.040;2023-02-22T06:46:47;65.40;;;29.20;;
10479;SDS011;12789;42.610;23.040;2023-02-22T06:49:15;70.83;;;29.37;;
10479;SDS011;12789;42.610;23.040;2023-02-22T06:51:42;71.20;;;28.87;;
10479;SDS011;12789;42.610;23.040;2023-02-22T06:54:08;66.00;;;29.63;;
10479;SDS011;12789;42.610;23.040;2023-02-22T06:56:35;73.77;;;30.80;;
10479;SDS011;12789;42.610;23.040;2023-02-22T06:59:01;75.37;;;34.43;;
10479;SDS011;12789;42.610;23.040;2023-02-22T13:01:39;3.80;;;3.50;;
10479;SDS011;12789;42.610;23.040;2023-02-22T13:04:09;8.20;;;5.25;;
10479;SDS011;12789;42.610;23.040;2023-02-22T13:12:38;2.97;;;2.70;;
10479;SDS011;12789;42.610;23.040;2023-02-22T13:15:15;3.13;;;2.88;;
10479;SDS011;12789;42.610;23.040;2023-02-22T13:18:01;3.92;;;3.45;;
10479;SDS011;12789;42.610;23.040;2023-02-22T13:20:38;5.13;;;2.35;;
10479;SDS011;12789;42.610;23.040;2023-02-22T13:23:29;2.53;;;2.30;;
10479;SDS011;12789;42.610;23.040;2023-02-22T13:26:05;3.90;;;3.50;;
10479;SDS011;12789;42.610;23.040;2023-02-22T13:28:46;5.68;;;2.78;;
10479;SDS011;12789;42.610;23.040;2023-02-22T13:31:41;3.60;;;2.95;;
10479;SDS011;12789;42.610;23.040;2023-02-22T13:34:32;3.75;;;2.88;;
10479;SDS011;12789;42.610;23.040;2023-02-22T13:40:47;6.07;;;2.88;;
10479;SDS011;12789;42.610;23.040;2023-02-22T13:43:40;6.82;;;3.22;;
10479;SDS011;12789;42.610;23.040;2023-02-22T13:46:53;3.42;;;2.97;;
10479;SDS011;12789;42.610;23.040;2023-02-22T13:49:48;10.57;;;3.03;;
10479;SDS011;12789;42.610;23.040;2023-02-22T13:52:32;9.35;;;3.97;;
10479;SDS011;12789;42.610;23.040;2023-02-22T14:16:19;6.30;;;4.30;;
10479;SDS011;12789;42.610;23.040;2023-02-22T14:18:49;3.47;;;3.15;;
10479;SDS011;12789;42.610;23.040;2023-02-22T14:21:30;4.43;;;3.67;;
10479;SDS011;12789;42.610;23.040;2023-02-22T14:24:18;3.70;;;3.10;;
10479;SDS011;12789;42.610;23.040;2023-02-22T14:26:52;3.47;;;3.20;;
10479;SDS011;12789;42.610;23.040;2023-02-22T14:29:22;6.25;;;4.10;;
10479;SDS011;12789;42.610;23.040;2023-02-22T14:31:57;16.10;;;7.32;;
10479;SDS011;12789;42.610;23.040;2023-02-22T14:34:40;6.05;;;4.10;;
10479;SDS011;12789;42.610;23.040;2023-02-22T14:37:16;3.88;;;2.88;;
10479;SDS011;12789;42.610;23.040;2023-02-22T14:39:46;5.30;;;2.83;;
10479;SDS011;12789;42.610;23.040;2023-02-22T14:42:18;6.32;;;3.70;;
10479;SDS011;12789;42.610;23.040;2023-02-22T14:44:56;4.05;;;3.38;;
10479;SDS011;12789;42.610;23.040;2023-02-22T14:47:29;6.55;;;3.22;;
10479;SDS011;12789;42.610;23.040;2023-02-22T14:50:07;6.50;;;3.30;;
10479;SDS011;12789;42.610;23.040;2023-02-22T14:52:41;8.38;;;3.30;;
10479;SDS011;12789;42.610;23.040;2023-02-22T14:55:15;3.63;;;3.20;;
10479;SDS011;12789;42.610;23.040;2023-02-22T14:57:57;4.13;;;2.88;;
10479;SDS011;12789;42.610;23.040;2023-02-22T15:00:39;5.18;;;3.30;;
10479;SDS011;12789;42.610;23.040;2023-02-22T15:03:25;9.00;;;3.08;;
10479;SDS011;12789;42.610;23.040;2023-02-22T15:06:02;3.13;;;2.88;;
10479;SDS011;12789;42.610;23.040;2023-02-22T15:08:30;3.83;;;3.08;;
10479;SDS011;12789;42.610;23.040;2023-02-22T15:11:02;4.32;;;3.47;;
10479;SDS011;12789;42.610;23.040;2023-02-22T15:13:29;3.83;;;2.78;;
10479;SDS011;12789;42.610;23.040;2023-02-22T15:15:59;7.20;;;3.47;;
10479;SDS011;12789;42.610;23.040;2023-02-22T15:18:39;7.28;;;3.85;;
10479;SDS011;12789;42.610;23.040;2023-02-22T15:21:13;9.43;;;4.80;;
10479;SDS011;12789;42.610;23.040;2023-02-22T15:23:43;7.40;;;4.03;;
10479;SDS011;12789;42.610;23.040;2023-02-22T15:26:16;7.90;;;4.20;;
10479;SDS011;12789;42.610;23.040;2023-02-22T15:28:47;6.68;;;4.25;;
10479;SDS011;12789;42.610;23.040;2023-02-22T15:31:24;7.10;;;4.22;;
10479;SDS011;12789;42.610;23.040;2023-02-22T15:33:58;10.00;;;3.85;;
10479;SDS011;12789;42.610;23.040;2023-02-22T15:36:38;4.55;;;3.67;;
10479;SDS011;12789;42.610;23.040;2023-02-22T15:39:15;5.93;;;3.30;;
10479;SDS011;12789;42.610;23.040;2023-02-22T15:41:44;5.20;;;4.00;;
10479;SDS011;12789;42.610;23.040;2023-02-22T15:44:11;7.47;;;4.63;;
10479;SDS011;12789;42.610;23.040;2023-02-22T17:33:00;102.27;;;48.30;;
10479;SDS011;12789;42.610;23.040;2023-02-22T17:35:44;84.77;;;42.20;;
10479;SDS011;12789;42.610;23.040;2023-02-22T17:38:36;71.87;;;35.03;;
10479;SDS011;12789;42.610;23.040;2023-02-22T17:41:06;56.40;;;31.73;;
10479;SDS011;12789;42.610;23.040;2023-02-22T17:43:49;56.30;;;26.73;;
10479;SDS011;12789;42.610;23.040;2023-02-22T17:46:29;56.83;;;29.17;;
10479;SDS011;12789;42.610;23.040;2023-02-22T17:49:05;84.23;;;33.40;;
10479;SDS011;12789;42.610;23.040;2023-02-22T17:51:55;59.70;;;30.97;;
10479;SDS011;12789;42.610;23.040;2023-02-22T17:54:52;56.10;;;27.23;;
10479;SDS011;12789;42.610;23.040;2023-02-22T17:57:45;66.30;;;28.50;;
10479;SDS011;12789;42.610;23.040;2023-02-22T18:04:20;44.87;;;25.50;;
10479;SDS011;12789;42.610;23.040;2023-02-22T18:07:36;84.13;;;36.83;;
10479;SDS011;12789;42.610;23.040;2023-02-22T18:10:07;98.13;;;40.80;;
10479;SDS011;12789;42.610;23.040;2023-02-22T18:13:15;118.60;;;44.97;;
10479;SDS011;12789;42.610;23.040;2023-02-22T18:19:18;118.50;;;54.10;;
10479;SDS011;12789;42.610;23.040;2023-02-22T18:22:12;105.90;;;48.77;;
10479;SDS011;12789;42.610;23.040;2023-02-22T18:24:55;101.90;;;44.33;;
10479;SDS011;12789;42.610;23.040;2023-02-22T18:27:40;105.17;;;48.97;;
10479;SDS011;12789;42.610;23.040;2023-02-22T18:30:13;102.27;;;52.17;;
10479;SDS011;12789;42.610;23.040;2023-02-22T18:33:23;95.20;;;51.30;;
10479;SDS011;12789;42.610;23.040;2023-02-22T18:36:07;105.87;;;54.70;;
10479;SDS011;12789;42.610;23.040;2023-02-22T18:38:55;111.90;;;51.90;;
10479;SDS011;12789;42.610;23.040;2023-02-22T18:42:20;109.03;;;55.50;;
10479;SDS011;12789;42.610;23.040;2023-02-22T18:44:55;130.90;;;64.17;;
10479;SDS011;12789;42.610;23.040;2023-02-22T18:47:25;149.97;;;76.83;;
10479;SDS011;12789;42.610;23.040;2023-02-22T18:49:58;236.07;;;121.47;;
10479;SDS011;12789;42.610;23.040;2023-02-22T18:52:26;287.07;;;150.07;;
10479;SDS011;12789;42.610;23.040;2023-02-22T18:55:11;433.37;;;251.70;;
10479;SDS011;12789;42.610;23.040;2023-02-22T18:57:39;364.90;;;201.03;;
10479;SDS011;12789;42.610;23.040;2023-02-22T19:00:13;267.43;;;138.40;;
10479;SDS011;12789;42.610;23.040;2023-02-22T19:02:48;210.47;;;103.13;;
10479;SDS011;12789;42.610;23.040;2023-02-22T19:05:17;152.73;;;68.73;;
10479;SDS011;12789;42.610;23.040;2023-02-22T19:07:46;101.90;;;48.03;;
10479;SDS011;12789;42.610;23.040;2023-02-22T19:10:16;70.57;;;38.87;;
10479;SDS011;12789;42.610;23.040;2023-02-22T19:12:46;77.90;;;35.80;;
10479;SDS011;12789;42.610;23.040;2023-02-22T19:15:15;56.50;;;31.63;;
10479;SDS011;12789;42.610;23.040;2023-02-22T19:17:42;54.73;;;29.70;;
10479;SDS011;12789;42.610;23.040;2023-02-22T19:20:10;57.33;;;30.93;;
10479;SDS011;12789;42.610;23.040;2023-02-22T19:22:37;54.27;;;29.17;;
10479;SDS011;12789;42.610;23.040;2023-02-22T19:25:06;58.83;;;30.77;;
10479;SDS011;12789;42.610;23.040;2023-02-22T19:27:33;63.87;;;32.33;;
10479;SDS011;12789;42.610;23.040;2023-02-22T19:30:00;55.17;;;30.23;;
10479;SDS011;12789;42.610;23.040;2023-02-22T19:32:28;58.27;;;29.93;;
10479;SDS011;12789;42.610;23.040;2023-02-22T19:34:57;62.50;;;29.83;;
10479;SDS011;12789;42.610;23.040;2023-02-22T19:37:30;57.00;;;29.40;;
10479;SDS011;12789;42.610;23.040;2023-02-22T19:39:59;60.27;;;30.73;;
10479;SDS011;12789;42.610;23.040;2023-02-22T19:42:28;46.60;;;26.10;;
10479;SDS011;12789;42.610;23.040;2023-02-22T19:44:54;50.83;;;26.70;;
10479;SDS011;12789;42.610;23.040;2023-02-22T19:47:22;48.37;;;24.73;;
10479;SDS011;12789;42.610;23.040;2023-02-22T19:49:48;49.60;;;27.87;;
10479;SDS011;12789;42.610;23.040;2023-02-22T19:52:15;57.67;;;31.30;;
10479;SDS011;12789;42.610;23.040;2023-02-22T19:54:42;112.63;;;54.80;;
10479;SDS011;12789;42.610;23.040;2023-02-22T19:57:10;349.10;;;217.97;;
10479;SDS011;12789;42.610;23.040;2023-02-22T19:59:38;93.40;;;47.83;;
10479;SDS011;12789;42.610;23.040;2023-02-22T20:02:05;86.57;;;46.17;;
10479;SDS011;12789;42.610;23.040;2023-02-22T20:04:35;86.87;;;44.40;;
10479;SDS011;12789;42.610;23.040;2023-02-22T20:07:14;84.27;;;42.80;;
10479;SDS011;12789;42.610;23.040;2023-02-22T20:09:40;65.33;;;37.73;;
10479;SDS011;12789;42.610;23.040;2023-02-22T20:12:07;54.47;;;32.27;;
10479;SDS011;12789;42.610;23.040;2023-02-22T20:14:34;52.23;;;28.00;;
10479;SDS011;12789;42.610;23.040;2023-02-22T20:17:04;37.17;;;23.50;;
10479;SDS011;12789;42.610;23.040;2023-02-22T20:19:31;42.67;;;21.80;;
10479;SDS011;12789;42.610;23.040;2023-02-22T20:22:01;35.60;;;18.67;;
10479;SDS011;12789;42.610;23.040;2023-02-22T20:24:28;39.00;;;20.70;;
10479;SDS011;12789;42.610;23.040;2023-02-22T20:26:55;38.30;;;21.13;;
10479;SDS011;12789;42.610;23.040;2023-02-22T20:29:22;37.90;;;22.40;;
10479;SDS011;12789;42.610;23.040;2023-02-22T20:31:53;38.37;;;23.57;;
10479;SDS011;12789;42.610;23.040;2023-02-22T20:34:22;48.37;;;26.00;;
10479;SDS011;12789;42.610;23.040;2023-02-22T20:36:50;57.37;;;29.53;;
10479;SDS011;12789;42.610;23.040;2023-02-22T20:39:18;64.50;;;32.43;;
10479;SDS011;12789;42.610;23.040;2023-02-22T20:41:44;66.33;;;32.50;;
10479;SDS011;12789;42.610;23.040;2023-02-22T20:44:12;65.17;;;34.87;;
10479;SDS011;12789;42.610;23.040;2023-02-22T20:46:42;66.40;;;34.33;;
10479;SDS011;12789;42.610;23.040;2023-02-22T20:49:10;65.13;;;34.30;;
10479;SDS011;12789;42.610;23.040;2023-02-22T20:51:40;73.87;;;33.87;;
10479;SDS011;12789;42.610;23.040;2023-02-22T20:54:07;62.87;;;31.23;;
10479;SDS011;12789;42.610;23.040;2023-02-22T20:56:36;64.17;;;32.50;;
10479;SDS011;12789;42.610;23.040;2023-02-22T20:59:04;84.73;;;41.20;;
10479;SDS011;12789;42.610;23.040;2023-02-22T21:01:31;89.03;;;44.70;;
10479;SDS011;12789;42.610;23.040;2023-02-22T21:03:58;84.47;;;42.30;;
10479;SDS011;12789;42.610;23.040;2023-02-22T21:06:26;74.83;;;40.83;;
10479;SDS011;12789;42.610;23.040;2023-02-22T21:08:55;84.00;;;42.23;;
10479;SDS011;12789;42.610;23.040;2023-02-22T21:11:25;75.57;;;40.23;;
10479;SDS011;12789;42.610;23.040;2023-02-22T21:13:54;74.43;;;38.33;;
10479;SDS011;12789;42.610;23.040;2023-02-22T21:16:22;77.67;;;38.67;;
10479;SDS011;12789;42.610;23.040;2023-02-22T21:18:51;72.87;;;38.10;;
10479;SDS011;12789;42.610;23.040;2023-02-22T21:21:18;74.80;;;33.90;;
10479;SDS011;12789;42.610;23.040;2023-02-22T21:23:47;61.23;;;30.83;;
10479;SDS011;12789;42.610;23.040;2023-02-22T21:26:17;54.97;;;27.47;;
10479;SDS011;12789;42.610;23.040;2023-02-22T21:28:47;50.23;;;27.13;;
10479;SDS011;12789;42.610;23.040;2023-02-22T21:31:14;55.03;;;25.67;;
10479;SDS011;12789;42.610;23.040;2023-02-22T21:33:41;50.70;;;26.37;;
10479;SDS011;12789;42.610;23.040;2023-02-22T21:36:09;60.03;;;26.30;;
10479;SDS011;12789;42.610;23.040;2023-02-22T21:38:38;56.30;;;25.63;;
10479;SDS011;12789;42.610;23.040;2023-02-22T21:41:24;54.90;;;25.37;;
10479;SDS011;12789;42.610;23.040;2023-02-22T21:43:53;52.57;;;25.87;;
10479;SDS011;12789;42.610;23.040;2023-02-22T21:46:20;55.60;;;27.37;;
10479;SDS011;12789;42.610;23.040;2023-02-22T21:48:48;63.77;;;29.67;;
10479;SDS011;12789;42.610;23.040;2023-02-22T21:51:15;67.97;;;32.07;;
10479;SDS011;12789;42.610;23.040;2023-02-22T21:53:44;78.73;;;34.33;;
10479;SDS011;12789;42.610;23.040;2023-02-22T21:56:13;89.73;;;37.17;;
10479;SDS011;12789;42.610;23.040;2023-02-22T21:58:44;89.27;;;35.27;;
10479;SDS011;12789;42.610;23.040;2023-02-22T22:01:11;67.80;;;31.40;;
10479;SDS011;12789;42.610;23.040;2023-02-22T22:03:41;59.10;;;27.83;;
10479;SDS011;12789;42.610;23.040;2023-02-22T22:06:09;61.37;;;27.50;;
10479;SDS011;12789;42.610;23.040;2023-02-22T22:08:37;53.90;;;25.73;;
10479;SDS011;12789;42.610;23.040;2023-02-22T22:11:05;53.50;;;23.53;;
10479;SDS011;12789;42.610;23.040;2023-02-22T22:13:34;40.57;;;20.67;;
10479;SDS011;12789;42.610;23.040;2023-02-22T22:16:04;43.37;;;20.50;;
10479;SDS011;12789;42.610;23.040;2023-02-22T22:18:33;38.50;;;19.60;;
10479;SDS011;12789;42.610;23.040;2023-02-22T22:21:04;44.13;;;24.97;;
10479;SDS011;12789;42.610;23.040;2023-02-22T22:23:36;45.37;;;22.70;;
10479;SDS011;12789;42.610;23.040;2023-02-22T22:26:04;40.33;;;22.17;;
10479;SDS011;12789;42.610;23.040;2023-02-22T22:28:36;37.20;;;20.67;;
10479;SDS011;12789;42.610;23.040;2023-02-22T22:31:05;37.70;;;20.97;;
10479;SDS011;12789;42.610;23.040;2023-02-22T22:33:42;62.73;;;34.60;;
10479;SDS011;12789;42.610;23.040;2023-02-22T22:36:11;57.30;;;33.40;;
10479;SDS011;12789;42.610;23.040;2023-02-22T22:38:39;57.17;;;30.57;;
10479;SDS011;12789;42.610;23.040;2023-02-22T22:41:08;52.73;;;27.40;;
10479;SDS011;12789;42.610;23.040;2023-02-22T22:43:37;51.23;;;24.10;;
10479;SDS011;12789;42.610;23.040;2023-02-22T22:46:07;47.10;;;25.10;;
10479;SDS011;12789;42.610;23.040;2023-02-22T22:48:36;45.50;;;24.77;;
10479;SDS011;12789;42.610;23.040;2023-02-22T22:51:04;48.20;;;25.17;;
10479;SDS011;12789;42.610;23.040;2023-02-22T22:53:34;54.87;;;25.93;;
10479;SDS011;12789;42.610;23.040;2023-02-22T22:56:04;51.67;;;26.80;;
10479;SDS011;12789;42.610;23.040;2023-02-22T22:58:38;52.23;;;26.87;;
10479;SDS011;12789;42.610;23.040;2023-02-22T23:01:05;51.70;;;27.13;;
10479;SDS011;12789;42.610;23.040;2023-02-22T23:03:42;57.33;;;28.63;;
10479;SDS011;12789;42.610;23.040;2023-02-22T23:06:12;56.10;;;28.80;;